sensor_id;sensor_type;location;lat;lon;timestamp;P1;durP1;ratioP1;P2;durP2;ratioP2
27424;SDS011;15244;49.088;11.886;2023-04-06T00:03:36;8.52;;;4.70;;
27424;SDS011;15244;49.088;11.886;2023-04-06T00:08:51;7.40;;;4.38;;
27424;SDS011;15244;49.088;11.886;2023-04-06T00:14:20;4.55;;;4.15;;
27424;SDS011;15244;49.088;11.886;2023-04-06T00:19:35;6.80;;;4.22;;
27424;SDS011;15244;49.088;11.886;2023-04-06T00:24:57;5.70;;;4.03;;
27424;SDS011;15244;49.088;11.886;2023-04-06T00:30:19;5.82;;;3.53;;
27424;SDS011;15244;49.088;11.886;2023-04-06T00:35:34;5.15;;;4.45;;
27424;SDS011;15244;49.088;11.886;2023-04-06T00:41:03;5.20;;;4.32;;
27424;SDS011;15244;49.088;11.886;2023-04-06T00:46:32;6.10;;;4.28;;
27424;SDS011;15244;49.088;11.886;2023-04-06T00:51:47;5.03;;;4.15;;
27424;SDS011;15244;49.088;11.886;2023-04-06T00:57:16;6.20;;;4.63;;
27424;SDS011;15244;49.088;11.886;2023-04-06T01:02:32;5.18;;;4.28;;
27424;SDS011;15244;49.088;11.886;2023-04-06T01:08:04;4.55;;;4.13;;
27424;SDS011;15244;49.088;11.886;2023-04-06T01:13:20;7.22;;;5.60;;
27424;SDS011;15244;49.088;11.886;2023-04-06T01:18:56;7.97;;;5.38;;
27424;SDS011;15244;49.088;11.886;2023-04-06T01:24:13;5.70;;;4.97;;
27424;SDS011;15244;49.088;11.886;2023-04-06T01:29:45;8.88;;;5.78;;
27424;SDS011;15244;49.088;11.886;2023-04-06T01:35:26;7.88;;;5.75;;
27424;SDS011;15244;49.088;11.886;2023-04-06T01:40:59;7.55;;;5.13;;
27424;SDS011;15244;49.088;11.886;2023-04-06T01:46:26;5.70;;;5.05;;
27424;SDS011;15244;49.088;11.886;2023-04-06T01:51:59;5.72;;;4.43;;
27424;SDS011;15244;49.088;11.886;2023-04-06T01:57:18;7.07;;;4.75;;
27424;SDS011;15244;49.088;11.886;2023-04-06T02:02:57;4.70;;;4.30;;
27424;SDS011;15244;49.088;11.886;2023-04-06T02:08:27;6.80;;;4.18;;
27424;SDS011;15244;49.088;11.886;2023-04-06T02:13:42;6.85;;;4.15;;
27424;SDS011;15244;49.088;11.886;2023-04-06T02:19:14;6.78;;;4.30;;
27424;SDS011;15244;49.088;11.886;2023-04-06T02:24:29;8.23;;;4.93;;
27424;SDS011;15244;49.088;11.886;2023-04-06T02:29:58;7.70;;;4.82;;
27424;SDS011;15244;49.088;11.886;2023-04-06T02:35:13;4.88;;;4.35;;
27424;SDS011;15244;49.088;11.886;2023-04-06T02:40:43;6.50;;;4.97;;
27424;SDS011;15244;49.088;11.886;2023-04-06T02:46:00;6.72;;;4.75;;
27424;SDS011;15244;49.088;11.886;2023-04-06T02:51:29;4.93;;;4.38;;
27424;SDS011;15244;49.088;11.886;2023-04-06T02:56:55;5.07;;;4.68;;
27424;SDS011;15244;49.088;11.886;2023-04-06T03:02:26;10.88;;;4.60;;
27424;SDS011;15244;49.088;11.886;2023-04-06T03:07:45;7.13;;;4.55;;
27424;SDS011;15244;49.088;11.886;2023-04-06T03:13:22;5.82;;;4.47;;
27424;SDS011;15244;49.088;11.886;2023-04-06T03:18:37;5.47;;;4.97;;
27424;SDS011;15244;49.088;11.886;2023-04-06T03:24:09;6.50;;;4.68;;
27424;SDS011;15244;49.088;11.886;2023-04-06T03:29:24;7.43;;;4.85;;
27424;SDS011;15244;49.088;11.886;2023-04-06T03:34:57;11.10;;;5.15;;
27424;SDS011;15244;49.088;11.886;2023-04-06T03:40:12;5.40;;;4.90;;
27424;SDS011;15244;49.088;11.886;2023-04-06T03:45:41;6.13;;;5.00;;
27424;SDS011;15244;49.088;11.886;2023-04-06T03:50:56;5.13;;;4.57;;
27424;SDS011;15244;49.088;11.886;2023-04-06T03:56:25;6.75;;;4.65;;
27424;SDS011;15244;49.088;11.886;2023-04-06T04:01:47;8.63;;;5.07;;
27424;SDS011;15244;49.088;11.886;2023-04-06T04:07:16;7.88;;;5.28;;
27424;SDS011;15244;49.088;11.886;2023-04-06T04:12:31;7.45;;;5.05;;
27424;SDS011;15244;49.088;11.886;2023-04-06T04:18:00;8.68;;;4.90;;
27424;SDS011;15244;49.088;11.886;2023-04-06T04:23:15;8.95;;;4.85;;
27424;SDS011;15244;49.088;11.886;2023-04-06T04:28:44;9.68;;;5.20;;
27424;SDS011;15244;49.088;11.886;2023-04-06T04:33:59;7.78;;;5.03;;
27424;SDS011;15244;49.088;11.886;2023-04-06T04:39:28;7.72;;;4.80;;
27424;SDS011;15244;49.088;11.886;2023-04-06T04:44:43;8.38;;;5.43;;
27424;SDS011;15244;49.088;11.886;2023-04-06T04:50:18;5.93;;;5.03;;
27424;SDS011;15244;49.088;11.886;2023-04-06T04:55:33;7.88;;;5.20;;
27424;SDS011;15244;49.088;11.886;2023-04-06T05:01:03;6.53;;;5.15;;
27424;SDS011;15244;49.088;11.886;2023-04-06T05:06:19;7.18;;;5.35;;
27424;SDS011;15244;49.088;11.886;2023-04-06T05:11:48;10.13;;;5.57;;
27424;SDS011;15244;49.088;11.886;2023-04-06T05:17:07;6.20;;;5.57;;
27424;SDS011;15244;49.088;11.886;2023-04-06T05:22:37;10.85;;;5.60;;
27424;SDS011;15244;49.088;11.886;2023-04-06T05:27:52;9.30;;;5.20;;
27424;SDS011;15244;49.088;11.886;2023-04-06T05:33:21;6.10;;;4.78;;
27424;SDS011;15244;49.088;11.886;2023-04-06T05:38:40;6.65;;;5.18;;
27424;SDS011;15244;49.088;11.886;2023-04-06T05:44:20;6.55;;;5.30;;
27424;SDS011;15244;49.088;11.886;2023-04-06T05:49:44;6.35;;;5.18;;
27424;SDS011;15244;49.088;11.886;2023-04-06T05:55:16;6.55;;;5.03;;
27424;SDS011;15244;49.088;11.886;2023-04-06T06:00:45;6.80;;;5.90;;
27424;SDS011;15244;49.088;11.886;2023-04-06T06:06:21;8.43;;;5.43;;
27424;SDS011;15244;49.088;11.886;2023-04-06T06:11:45;10.57;;;8.27;;
27424;SDS011;15244;49.088;11.886;2023-04-06T06:17:15;10.52;;;6.10;;
27424;SDS011;15244;49.088;11.886;2023-04-06T06:22:30;16.48;;;8.90;;
27424;SDS011;15244;49.088;11.886;2023-04-06T06:28:02;11.02;;;6.75;;
27424;SDS011;15244;49.088;11.886;2023-04-06T06:33:17;9.93;;;6.03;;
27424;SDS011;15244;49.088;11.886;2023-04-06T06:38:46;6.15;;;5.55;;
27424;SDS011;15244;49.088;11.886;2023-04-06T06:44:01;7.13;;;6.28;;
27424;SDS011;15244;49.088;11.886;2023-04-06T06:49:31;7.38;;;6.00;;
27424;SDS011;15244;49.088;11.886;2023-04-06T06:54:46;6.28;;;5.68;;
27424;SDS011;15244;49.088;11.886;2023-04-06T07:00:15;8.00;;;5.40;;
27424;SDS011;15244;49.088;11.886;2023-04-06T07:05:30;8.32;;;5.03;;
27424;SDS011;15244;49.088;11.886;2023-04-06T07:10:59;8.77;;;5.50;;
27424;SDS011;15244;49.088;11.886;2023-04-06T07:16:14;5.97;;;5.30;;
27424;SDS011;15244;49.088;11.886;2023-04-06T07:21:43;8.95;;;5.38;;
27424;SDS011;15244;49.088;11.886;2023-04-06T07:26:58;7.75;;;6.28;;
27424;SDS011;15244;49.088;11.886;2023-04-06T07:32:28;6.15;;;5.65;;
27424;SDS011;15244;49.088;11.886;2023-04-06T07:37:43;6.88;;;6.20;;
27424;SDS011;15244;49.088;11.886;2023-04-06T07:43:13;6.63;;;6.03;;
27424;SDS011;15244;49.088;11.886;2023-04-06T07:48:29;7.90;;;5.30;;
27424;SDS011;15244;49.088;11.886;2023-04-06T07:53:59;10.38;;;4.63;;
27424;SDS011;15244;49.088;11.886;2023-04-06T07:59:14;5.63;;;5.05;;
27424;SDS011;15244;49.088;11.886;2023-04-06T08:04:43;6.03;;;5.45;;
27424;SDS011;15244;49.088;11.886;2023-04-06T08:09:58;7.38;;;5.18;;
27424;SDS011;15244;49.088;11.886;2023-04-06T08:15:27;6.13;;;5.60;;
27424;SDS011;15244;49.088;11.886;2023-04-06T08:20:42;5.20;;;4.80;;
27424;SDS011;15244;49.088;11.886;2023-04-06T08:26:11;6.75;;;5.38;;
27424;SDS011;15244;49.088;11.886;2023-04-06T08:31:26;5.53;;;4.95;;
27424;SDS011;15244;49.088;11.886;2023-04-06T08:36:55;6.43;;;5.43;;
27424;SDS011;15244;49.088;11.886;2023-04-06T08:42:11;8.23;;;5.93;;
27424;SDS011;15244;49.088;11.886;2023-04-06T08:47:45;7.80;;;5.20;;
27424;SDS011;15244;49.088;11.886;2023-04-06T08:53:01;6.43;;;5.50;;
27424;SDS011;15244;49.088;11.886;2023-04-06T08:58:35;5.18;;;4.70;;
27424;SDS011;15244;49.088;11.886;2023-04-06T09:04:00;7.97;;;5.90;;
27424;SDS011;15244;49.088;11.886;2023-04-06T09:09:32;6.82;;;5.85;;
27424;SDS011;15244;49.088;11.886;2023-04-06T09:14:47;7.78;;;5.47;;
27424;SDS011;15244;49.088;11.886;2023-04-06T09:20:21;6.15;;;5.22;;
27424;SDS011;15244;49.088;11.886;2023-04-06T09:25:40;6.60;;;5.40;;
27424;SDS011;15244;49.088;11.886;2023-04-06T09:31:09;6.63;;;5.50;;
27424;SDS011;15244;49.088;11.886;2023-04-06T09:36:33;7.30;;;5.18;;
27424;SDS011;15244;49.088;11.886;2023-04-06T09:42:04;6.70;;;6.07;;
27424;SDS011;15244;49.088;11.886;2023-04-06T09:47:19;6.40;;;5.53;;
27424;SDS011;15244;49.088;11.886;2023-04-06T09:52:48;5.47;;;5.00;;
27424;SDS011;15244;49.088;11.886;2023-04-06T09:58:12;6.55;;;5.93;;
27424;SDS011;15244;49.088;11.886;2023-04-06T10:09:21;6.60;;;5.97;;
27424;SDS011;15244;49.088;11.886;2023-04-06T10:14:40;6.15;;;5.55;;
27424;SDS011;15244;49.088;11.886;2023-04-06T10:20:10;8.02;;;6.20;;
27424;SDS011;15244;49.088;11.886;2023-04-06T10:25:33;5.13;;;4.72;;
27424;SDS011;15244;49.088;11.886;2023-04-06T10:31:04;5.80;;;5.18;;
27424;SDS011;15244;49.088;11.886;2023-04-06T10:36:26;5.68;;;5.10;;
27424;SDS011;15244;49.088;11.886;2023-04-06T10:41:57;6.57;;;5.97;;
27424;SDS011;15244;49.088;11.886;2023-04-06T10:47:21;6.10;;;5.53;;
27424;SDS011;15244;49.088;11.886;2023-04-06T10:53:02;5.88;;;5.30;;
27424;SDS011;15244;49.088;11.886;2023-04-06T10:58:17;6.40;;;5.80;;
27424;SDS011;15244;49.088;11.886;2023-04-06T11:03:46;6.00;;;5.40;;
27424;SDS011;15244;49.088;11.886;2023-04-06T11:09:28;6.63;;;5.13;;
27424;SDS011;15244;49.088;11.886;2023-04-06T11:14:53;6.78;;;6.18;;
27424;SDS011;15244;49.088;11.886;2023-04-06T11:20:28;5.47;;;4.97;;
27424;SDS011;15244;49.088;11.886;2023-04-06T11:25:49;5.75;;;5.13;;
27424;SDS011;15244;49.088;11.886;2023-04-06T11:31:19;6.30;;;5.57;;
27424;SDS011;15244;49.088;11.886;2023-04-06T11:36:40;6.28;;;5.68;;
27424;SDS011;15244;49.088;11.886;2023-04-06T11:42:10;6.53;;;5.05;;
27424;SDS011;15244;49.088;11.886;2023-04-06T11:47:28;5.95;;;5.45;;
27424;SDS011;15244;49.088;11.886;2023-04-06T11:52:59;5.82;;;5.32;;
27424;SDS011;15244;49.088;11.886;2023-04-06T11:58:15;5.57;;;5.07;;
27424;SDS011;15244;49.088;11.886;2023-04-06T12:03:44;5.60;;;5.07;;
27424;SDS011;15244;49.088;11.886;2023-04-06T12:08:59;6.15;;;5.65;;
27424;SDS011;15244;49.088;11.886;2023-04-06T12:14:28;5.50;;;5.05;;
27424;SDS011;15244;49.088;11.886;2023-04-06T12:19:45;6.05;;;4.90;;
27424;SDS011;15244;49.088;11.886;2023-04-06T12:25:20;4.90;;;4.50;;
27424;SDS011;15244;49.088;11.886;2023-04-06T12:30:35;5.57;;;5.07;;
27424;SDS011;15244;49.088;11.886;2023-04-06T12:36:04;5.10;;;4.70;;
27424;SDS011;15244;49.088;11.886;2023-04-06T12:41:19;5.50;;;5.07;;
27424;SDS011;15244;49.088;11.886;2023-04-06T12:46:48;5.13;;;4.72;;
27424;SDS011;15244;49.088;11.886;2023-04-06T12:52:03;5.93;;;5.43;;
27424;SDS011;15244;49.088;11.886;2023-04-06T12:57:32;6.22;;;5.18;;
27424;SDS011;15244;49.088;11.886;2023-04-06T13:02:47;5.00;;;4.60;;
27424;SDS011;15244;49.088;11.886;2023-04-06T13:08:09;4.88;;;4.45;;
27424;SDS011;15244;49.088;11.886;2023-04-06T13:13:31;4.80;;;4.45;;
27424;SDS011;15244;49.088;11.886;2023-04-06T13:18:46;4.28;;;3.97;;
27424;SDS011;15244;49.088;11.886;2023-04-06T13:24:15;4.30;;;4.00;;
27424;SDS011;15244;49.088;11.886;2023-04-06T13:29:30;6.97;;;5.38;;
27424;SDS011;15244;49.088;11.886;2023-04-06T13:34:59;5.32;;;4.82;;
27424;SDS011;15244;49.088;11.886;2023-04-06T13:40:15;4.65;;;4.25;;
27424;SDS011;15244;49.088;11.886;2023-04-06T13:45:48;5.00;;;4.45;;
27424;SDS011;15244;49.088;11.886;2023-04-06T13:51:07;4.60;;;4.28;;
27424;SDS011;15244;49.088;11.886;2023-04-06T13:56:45;5.25;;;4.82;;
27424;SDS011;15244;49.088;11.886;2023-04-06T14:02:00;4.85;;;4.32;;
27424;SDS011;15244;49.088;11.886;2023-04-06T14:07:29;4.43;;;4.03;;
27424;SDS011;15244;49.088;11.886;2023-04-06T14:12:44;4.43;;;4.07;;
27424;SDS011;15244;49.088;11.886;2023-04-06T14:18:13;4.20;;;3.90;;
27424;SDS011;15244;49.088;11.886;2023-04-06T14:23:29;3.83;;;3.63;;
27424;SDS011;15244;49.088;11.886;2023-04-06T14:28:58;3.90;;;3.60;;
27424;SDS011;15244;49.088;11.886;2023-04-06T14:34:15;5.05;;;4.55;;
27424;SDS011;15244;49.088;11.886;2023-04-06T14:39:44;4.68;;;4.18;;
27424;SDS011;15244;49.088;11.886;2023-04-06T14:44:59;5.38;;;4.88;;
27424;SDS011;15244;49.088;11.886;2023-04-06T14:50:28;5.00;;;4.20;;
27424;SDS011;15244;49.088;11.886;2023-04-06T14:55:43;4.80;;;4.32;;
27424;SDS011;15244;49.088;11.886;2023-04-06T15:01:13;4.45;;;4.15;;
27424;SDS011;15244;49.088;11.886;2023-04-06T15:06:42;4.68;;;4.35;;
27424;SDS011;15244;49.088;11.886;2023-04-06T15:12:12;4.50;;;4.20;;
27424;SDS011;15244;49.088;11.886;2023-04-06T15:17:27;4.88;;;4.47;;
27424;SDS011;15244;49.088;11.886;2023-04-06T15:22:56;4.97;;;4.50;;
27424;SDS011;15244;49.088;11.886;2023-04-06T15:28:11;4.85;;;4.55;;
27424;SDS011;15244;49.088;11.886;2023-04-06T15:33:33;4.78;;;4.38;;
27424;SDS011;15244;49.088;11.886;2023-04-06T15:38:58;5.45;;;4.95;;
27424;SDS011;15244;49.088;11.886;2023-04-06T15:44:13;5.28;;;4.90;;
27424;SDS011;15244;49.088;11.886;2023-04-06T15:49:41;5.05;;;4.65;;
27424;SDS011;15244;49.088;11.886;2023-04-06T15:54:57;4.90;;;4.60;;
27424;SDS011;15244;49.088;11.886;2023-04-06T16:00:26;5.25;;;4.85;;
27424;SDS011;15244;49.088;11.886;2023-04-06T16:05:42;4.65;;;4.35;;
27424;SDS011;15244;49.088;11.886;2023-04-06T16:11:21;4.30;;;4.00;;
27424;SDS011;15244;49.088;11.886;2023-04-06T16:16:37;5.50;;;4.72;;
27424;SDS011;15244;49.088;11.886;2023-04-06T16:22:06;4.97;;;4.65;;
27424;SDS011;15244;49.088;11.886;2023-04-06T16:27:21;5.15;;;4.80;;
27424;SDS011;15244;49.088;11.886;2023-04-06T16:32:50;5.25;;;4.75;;
27424;SDS011;15244;49.088;11.886;2023-04-06T16:38:05;4.90;;;4.60;;
27424;SDS011;15244;49.088;11.886;2023-04-06T16:43:33;6.18;;;5.55;;
27424;SDS011;15244;49.088;11.886;2023-04-06T16:48:49;5.90;;;5.50;;
27424;SDS011;15244;49.088;11.886;2023-04-06T16:54:17;5.38;;;4.97;;
27424;SDS011;15244;49.088;11.886;2023-04-06T16:59:33;5.90;;;5.50;;
27424;SDS011;15244;49.088;11.886;2023-04-06T17:05:02;5.65;;;4.45;;
27424;SDS011;15244;49.088;11.886;2023-04-06T17:10:31;5.22;;;4.85;;
27424;SDS011;15244;49.088;11.886;2023-04-06T17:16:05;5.10;;;4.63;;
27424;SDS011;15244;49.088;11.886;2023-04-06T17:21:34;4.80;;;4.40;;
27424;SDS011;15244;49.088;11.886;2023-04-06T17:26:50;3.40;;;3.20;;
27424;SDS011;15244;49.088;11.886;2023-04-06T17:32:19;4.15;;;3.85;;
27424;SDS011;15244;49.088;11.886;2023-04-06T17:37:35;4.25;;;3.95;;
27424;SDS011;15244;49.088;11.886;2023-04-06T17:43:05;4.00;;;3.70;;
27424;SDS011;15244;49.088;11.886;2023-04-06T17:48:21;4.47;;;4.07;;
27424;SDS011;15244;49.088;11.886;2023-04-06T17:53:49;7.53;;;4.55;;
27424;SDS011;15244;49.088;11.886;2023-04-06T17:59:05;6.82;;;4.22;;
27424;SDS011;15244;49.088;11.886;2023-04-06T18:04:34;5.30;;;4.80;;
27424;SDS011;15244;49.088;11.886;2023-04-06T18:10:05;5.65;;;4.97;;
27424;SDS011;15244;49.088;11.886;2023-04-06T18:15:21;5.82;;;5.32;;
27424;SDS011;15244;49.088;11.886;2023-04-06T18:20:49;5.93;;;5.40;;
27424;SDS011;15244;49.088;11.886;2023-04-06T18:26:05;6.05;;;5.32;;
27424;SDS011;15244;49.088;11.886;2023-04-06T18:31:33;6.20;;;5.70;;
27424;SDS011;15244;49.088;11.886;2023-04-06T18:36:49;5.55;;;5.05;;
27424;SDS011;15244;49.088;11.886;2023-04-06T18:42:18;4.95;;;4.60;;
27424;SDS011;15244;49.088;11.886;2023-04-06T18:47:33;6.30;;;5.70;;
27424;SDS011;15244;49.088;11.886;2023-04-06T18:53:02;6.00;;;5.40;;
27424;SDS011;15244;49.088;11.886;2023-04-06T18:58:17;6.07;;;5.45;;
27424;SDS011;15244;49.088;11.886;2023-04-06T19:03:45;5.57;;;5.18;;
27424;SDS011;15244;49.088;11.886;2023-04-06T19:09:01;6.38;;;5.78;;
27424;SDS011;15244;49.088;11.886;2023-04-06T19:14:30;6.07;;;5.57;;
27424;SDS011;15244;49.088;11.886;2023-04-06T19:19:46;15.77;;;12.32;;
27424;SDS011;15244;49.088;11.886;2023-04-06T19:25:16;11.10;;;9.65;;
27424;SDS011;15244;49.088;11.886;2023-04-06T19:30:32;9.95;;;8.00;;
27424;SDS011;15244;49.088;11.886;2023-04-06T19:36:02;15.05;;;11.40;;
27424;SDS011;15244;49.088;11.886;2023-04-06T19:41:18;14.98;;;11.65;;
27424;SDS011;15244;49.088;11.886;2023-04-06T19:46:47;12.73;;;10.88;;
27424;SDS011;15244;49.088;11.886;2023-04-06T19:52:04;11.55;;;10.35;;
27424;SDS011;15244;49.088;11.886;2023-04-06T19:57:33;12.00;;;10.25;;
27424;SDS011;15244;49.088;11.886;2023-04-06T20:02:49;11.82;;;10.23;;
27424;SDS011;15244;49.088;11.886;2023-04-06T20:08:17;15.68;;;10.68;;
27424;SDS011;15244;49.088;11.886;2023-04-06T20:13:33;10.77;;;8.80;;
27424;SDS011;15244;49.088;11.886;2023-04-06T20:19:01;10.05;;;9.02;;
27424;SDS011;15244;49.088;11.886;2023-04-06T20:24:17;9.48;;;8.57;;
27424;SDS011;15244;49.088;11.886;2023-04-06T20:29:45;12.52;;;9.13;;
27424;SDS011;15244;49.088;11.886;2023-04-06T20:35:01;9.93;;;9.02;;
27424;SDS011;15244;49.088;11.886;2023-04-06T20:40:29;10.65;;;9.55;;
27424;SDS011;15244;49.088;11.886;2023-04-06T20:45:45;15.82;;;13.95;;
27424;SDS011;15244;49.088;11.886;2023-04-06T20:51:17;13.43;;;11.40;;
27424;SDS011;15244;49.088;11.886;2023-04-06T20:56:34;11.68;;;9.57;;
27424;SDS011;15244;49.088;11.886;2023-04-06T21:02:02;12.45;;;9.60;;
27424;SDS011;15244;49.088;11.886;2023-04-06T21:07:18;11.07;;;8.88;;
27424;SDS011;15244;49.088;11.886;2023-04-06T21:12:46;13.82;;;9.80;;
27424;SDS011;15244;49.088;11.886;2023-04-06T21:18:02;45.85;;;20.92;;
27424;SDS011;15244;49.088;11.886;2023-04-06T21:23:30;67.75;;;28.15;;
27424;SDS011;15244;49.088;11.886;2023-04-06T21:28:46;33.65;;;17.85;;
27424;SDS011;15244;49.088;11.886;2023-04-06T21:34:14;18.17;;;12.25;;
27424;SDS011;15244;49.088;11.886;2023-04-06T21:39:30;12.70;;;9.50;;
27424;SDS011;15244;49.088;11.886;2023-04-06T21:44:58;11.93;;;9.20;;
27424;SDS011;15244;49.088;11.886;2023-04-06T21:50:14;11.65;;;9.15;;
27424;SDS011;15244;49.088;11.886;2023-04-06T21:55:46;14.48;;;9.57;;
27424;SDS011;15244;49.088;11.886;2023-04-06T22:01:02;13.85;;;9.98;;
27424;SDS011;15244;49.088;11.886;2023-04-06T22:06:30;13.45;;;9.05;;
27424;SDS011;15244;49.088;11.886;2023-04-06T22:11:46;12.88;;;8.20;;
27424;SDS011;15244;49.088;11.886;2023-04-06T22:17:14;9.15;;;7.95;;
27424;SDS011;15244;49.088;11.886;2023-04-06T22:22:30;9.70;;;8.02;;
27424;SDS011;15244;49.088;11.886;2023-04-06T22:27:58;11.00;;;8.73;;
27424;SDS011;15244;49.088;11.886;2023-04-06T22:33:14;15.30;;;10.75;;
27424;SDS011;15244;49.088;11.886;2023-04-06T22:38:42;17.70;;;11.98;;
27424;SDS011;15244;49.088;11.886;2023-04-06T22:43:58;19.83;;;12.30;;
27424;SDS011;15244;49.088;11.886;2023-04-06T22:49:26;10.45;;;8.73;;
27424;SDS011;15244;49.088;11.886;2023-04-06T22:54:42;10.80;;;9.48;;
27424;SDS011;15244;49.088;11.886;2023-04-06T23:00:10;11.25;;;8.18;;
27424;SDS011;15244;49.088;11.886;2023-04-06T23:05:33;11.07;;;8.30;;
27424;SDS011;15244;49.088;11.886;2023-04-06T23:11:02;9.90;;;8.80;;
27424;SDS011;15244;49.088;11.886;2023-04-06T23:16:17;12.98;;;8.68;;
27424;SDS011;15244;49.088;11.886;2023-04-06T23:21:46;11.50;;;9.32;;
27424;SDS011;15244;49.088;11.886;2023-04-06T23:27:02;12.20;;;9.85;;
27424;SDS011;15244;49.088;11.886;2023-04-06T23:32:30;11.23;;;8.75;;
27424;SDS011;15244;49.088;11.886;2023-04-06T23:37:45;11.55;;;8.50;;
27424;SDS011;15244;49.088;11.886;2023-04-06T23:43:14;10.57;;;9.32;;
27424;SDS011;15244;49.088;11.886;2023-04-06T23:48:29;9.40;;;8.45;;
27424;SDS011;15244;49.088;11.886;2023-04-06T23:53:59;12.20;;;9.18;;
27424;SDS011;15244;49.088;11.886;2023-04-06T23:59:14;10.75;;;8.70;;
